sensor_id;sensor_type;location;lat;lon;timestamp;pressure;altitude;pressure_sealevel;temperature;humidity
77323;BME280;66384;51.052;9.850;2023-02-21T00:02:20;98859.12;;;8.13;73.43
77323;BME280;66384;51.052;9.850;2023-02-21T00:05:07;98861.34;;;8.12;73.61
77323;BME280;66384;51.052;9.850;2023-02-21T00:07:54;98863.39;;;8.12;73.49
77323;BME280;66384;51.052;9.850;2023-02-21T00:10:41;98859.96;;;8.12;73.54
77323;BME280;66384;51.052;9.850;2023-02-21T00:13:29;98858.14;;;8.13;73.35
77323;BME280;66384;51.052;9.850;2023-02-21T00:16:17;98853.83;;;8.13;73.31
77323;BME280;66384;51.052;9.850;2023-02-21T00:19:04;98855.83;;;8.11;73.02
77323;BME280;66384;51.052;9.850;2023-02-21T00:21:52;98852.23;;;8.11;73.27
77323;BME280;66384;51.052;9.850;2023-02-21T00:24:39;98856.30;;;8.10;73.16
77323;BME280;66384;51.052;9.850;2023-02-21T00:27:26;98856.74;;;8.09;73.37
77323;BME280;66384;51.052;9.850;2023-02-21T00:30:15;98863.08;;;8.09;73.26
77323;BME280;66384;51.052;9.850;2023-02-21T00:33:02;98857.09;;;8.09;73.14
77323;BME280;66384;51.052;9.850;2023-02-21T00:35:49;98850.09;;;8.09;73.18
77323;BME280;66384;51.052;9.850;2023-02-21T00:38:38;98851.11;;;8.09;73.47
77323;BME280;66384;51.052;9.850;2023-02-21T00:41:25;98848.85;;;8.08;73.19
77323;BME280;66384;51.052;9.850;2023-02-21T00:44:12;98855.56;;;8.09;73.27
77323;BME280;66384;51.052;9.850;2023-02-21T00:46:59;98858.13;;;8.09;73.19
77323;BME280;66384;51.052;9.850;2023-02-21T00:49:46;98862.41;;;8.09;73.38
77323;BME280;66384;51.052;9.850;2023-02-21T00:52:33;98857.23;;;8.08;73.36
77323;BME280;66384;51.052;9.850;2023-02-21T00:55:20;98855.04;;;8.09;73.44
77323;BME280;66384;51.052;9.850;2023-02-21T00:58:07;98846.60;;;8.08;73.07
77323;BME280;66384;51.052;9.850;2023-02-21T01:00:54;98846.61;;;8.08;73.14
77323;BME280;66384;51.052;9.850;2023-02-21T01:03:41;98840.09;;;8.08;73.24
77323;BME280;66384;51.052;9.850;2023-02-21T01:06:28;98829.35;;;8.09;73.23
77323;BME280;66384;51.052;9.850;2023-02-21T01:09:15;98827.11;;;8.09;73.15
77323;BME280;66384;51.052;9.850;2023-02-21T01:12:02;98821.54;;;8.06;73.17
77323;BME280;66384;51.052;9.850;2023-02-21T01:14:49;98821.83;;;8.05;73.10
77323;BME280;66384;51.052;9.850;2023-02-21T01:17:36;98816.95;;;8.03;73.39
77323;BME280;66384;51.052;9.850;2023-02-21T01:20:22;98816.85;;;8.01;73.38
77323;BME280;66384;51.052;9.850;2023-02-21T01:23:09;98817.13;;;7.99;73.33
77323;BME280;66384;51.052;9.850;2023-02-21T01:25:56;98819.35;;;7.98;73.57
77323;BME280;66384;51.052;9.850;2023-02-21T01:28:42;98818.09;;;7.97;73.43
77323;BME280;66384;51.052;9.850;2023-02-21T01:31:29;98816.65;;;7.95;73.59
77323;BME280;66384;51.052;9.850;2023-02-21T01:34:16;98812.50;;;7.94;73.44
77323;BME280;66384;51.052;9.850;2023-02-21T01:37:03;98814.40;;;7.94;73.62
77323;BME280;66384;51.052;9.850;2023-02-21T01:39:50;98811.66;;;7.94;73.75
77323;BME280;66384;51.052;9.850;2023-02-21T01:42:37;98811.30;;;7.94;73.70
77323;BME280;66384;51.052;9.850;2023-02-21T01:45:44;98810.96;;;7.94;73.57
77323;BME280;66384;51.052;9.850;2023-02-21T01:48:34;98804.48;;;7.95;73.59
77323;BME280;66384;51.052;9.850;2023-02-21T01:51:24;98810.17;;;7.95;73.33
77323;BME280;66384;51.052;9.850;2023-02-21T01:54:13;98811.06;;;7.96;73.41
77323;BME280;66384;51.052;9.850;2023-02-21T01:57:02;98808.47;;;7.96;73.43
77323;BME280;66384;51.052;9.850;2023-02-21T01:59:51;98806.86;;;7.94;73.51
77323;BME280;66384;51.052;9.850;2023-02-21T02:02:45;98811.52;;;7.95;73.42
77323;BME280;66384;51.052;9.850;2023-02-21T02:05:33;98811.02;;;7.95;73.41
77323;BME280;66384;51.052;9.850;2023-02-21T02:08:22;98811.41;;;7.96;73.44
77323;BME280;66384;51.052;9.850;2023-02-21T02:11:22;98809.52;;;7.96;73.23
77323;BME280;66384;51.052;9.850;2023-02-21T02:14:23;98807.89;;;7.99;73.26
77323;BME280;66384;51.052;9.850;2023-02-21T02:17:04;98803.48;;;8.00;73.22
77323;BME280;66384;51.052;9.850;2023-02-21T02:19:54;98799.91;;;8.01;72.96
77323;BME280;66384;51.052;9.850;2023-02-21T02:22:41;98791.66;;;8.00;73.19
77323;BME280;66384;51.052;9.850;2023-02-21T02:25:26;98798.36;;;8.01;73.17
77323;BME280;66384;51.052;9.850;2023-02-21T02:28:24;98790.83;;;8.01;72.88
77323;BME280;66384;51.052;9.850;2023-02-21T02:31:13;98801.27;;;8.01;73.13
77323;BME280;66384;51.052;9.850;2023-02-21T02:36:51;98802.90;;;8.03;73.03
77323;BME280;66384;51.052;9.850;2023-02-21T02:39:27;98801.89;;;8.03;72.89
77323;BME280;66384;51.052;9.850;2023-02-21T02:42:04;98801.09;;;8.05;72.87
77323;BME280;66384;51.052;9.850;2023-02-21T02:44:39;98805.44;;;8.06;73.06
77323;BME280;66384;51.052;9.850;2023-02-21T02:47:16;98805.52;;;8.08;72.82
77323;BME280;66384;51.052;9.850;2023-02-21T02:49:50;98807.26;;;8.09;72.58
77323;BME280;66384;51.052;9.850;2023-02-21T02:52:18;98796.48;;;8.10;72.83
77323;BME280;66384;51.052;9.850;2023-02-21T02:54:59;98800.75;;;8.09;72.69
77323;BME280;66384;51.052;9.850;2023-02-21T02:57:31;98794.89;;;8.08;72.55
77323;BME280;66384;51.052;9.850;2023-02-21T03:00:10;98793.83;;;8.07;72.82
77323;BME280;66384;51.052;9.850;2023-02-21T03:02:51;98793.33;;;8.08;72.99
77323;BME280;66384;51.052;9.850;2023-02-21T03:05:37;98791.86;;;8.10;72.92
77323;BME280;66384;51.052;9.850;2023-02-21T03:08:10;98796.20;;;8.11;72.86
77323;BME280;66384;51.052;9.850;2023-02-21T03:10:47;98791.57;;;8.11;72.74
77323;BME280;66384;51.052;9.850;2023-02-21T03:13:23;98791.91;;;8.11;72.74
77323;BME280;66384;51.052;9.850;2023-02-21T03:16:00;98795.64;;;8.10;72.80
77323;BME280;66384;51.052;9.850;2023-02-21T03:18:37;98794.55;;;8.08;72.96
77323;BME280;66384;51.052;9.850;2023-02-21T03:21:12;98795.84;;;8.06;73.03
77323;BME280;66384;51.052;9.850;2023-02-21T03:23:45;98802.15;;;8.05;72.86
77323;BME280;66384;51.052;9.850;2023-02-21T03:26:17;98803.52;;;8.06;72.96
77323;BME280;66384;51.052;9.850;2023-02-21T03:28:47;98798.38;;;8.05;72.92
77323;BME280;66384;51.052;9.850;2023-02-21T03:31:20;98784.52;;;8.06;73.07
77323;BME280;66384;51.052;9.850;2023-02-21T03:33:52;98772.44;;;8.04;72.93
77323;BME280;66384;51.052;9.850;2023-02-21T03:36:22;98784.38;;;8.02;73.22
77323;BME280;66384;51.052;9.850;2023-02-21T03:38:52;98795.27;;;8.01;73.28
77323;BME280;66384;51.052;9.850;2023-02-21T03:41:21;98803.59;;;7.98;73.24
77323;BME280;66384;51.052;9.850;2023-02-21T03:43:51;98808.85;;;7.97;73.08
77323;BME280;66384;51.052;9.850;2023-02-21T03:46:20;98809.71;;;7.97;73.37
77323;BME280;66384;51.052;9.850;2023-02-21T03:48:50;98810.42;;;7.98;73.21
77323;BME280;66384;51.052;9.850;2023-02-21T03:51:19;98813.30;;;8.01;73.20
77323;BME280;66384;51.052;9.850;2023-02-21T03:53:49;98809.59;;;8.03;73.42
77323;BME280;66384;51.052;9.850;2023-02-21T03:56:18;98806.79;;;8.06;73.19
77323;BME280;66384;51.052;9.850;2023-02-21T03:58:48;98806.27;;;8.05;72.93
77323;BME280;66384;51.052;9.850;2023-02-21T04:01:17;98806.95;;;8.05;73.14
77323;BME280;66384;51.052;9.850;2023-02-21T04:03:47;98804.73;;;8.06;72.97
77323;BME280;66384;51.052;9.850;2023-02-21T04:06:16;98805.24;;;8.06;73.12
77323;BME280;66384;51.052;9.850;2023-02-21T04:08:46;98804.55;;;8.05;73.20
77323;BME280;66384;51.052;9.850;2023-02-21T04:11:18;98805.92;;;8.06;73.21
77323;BME280;66384;51.052;9.850;2023-02-21T04:13:48;98805.85;;;8.04;73.39
77323;BME280;66384;51.052;9.850;2023-02-21T04:16:17;98806.90;;;8.04;73.40
77323;BME280;66384;51.052;9.850;2023-02-21T04:18:47;98803.81;;;8.04;73.60
77323;BME280;66384;51.052;9.850;2023-02-21T04:21:17;98802.96;;;8.04;73.44
77323;BME280;66384;51.052;9.850;2023-02-21T04:23:47;98802.64;;;8.05;73.67
77323;BME280;66384;51.052;9.850;2023-02-21T04:26:16;98802.48;;;8.05;73.32
77323;BME280;66384;51.052;9.850;2023-02-21T04:28:46;98805.87;;;8.04;73.40
77323;BME280;66384;51.052;9.850;2023-02-21T04:31:17;98805.52;;;8.04;73.61
77323;BME280;66384;51.052;9.850;2023-02-21T04:33:46;98799.03;;;8.05;73.45
77323;BME280;66384;51.052;9.850;2023-02-21T04:36:16;98798.55;;;8.05;73.40
77323;BME280;66384;51.052;9.850;2023-02-21T04:38:46;98796.14;;;8.05;73.40
77323;BME280;66384;51.052;9.850;2023-02-21T04:41:15;98797.33;;;8.05;73.37
77323;BME280;66384;51.052;9.850;2023-02-21T04:43:45;98805.25;;;8.06;73.63
77323;BME280;66384;51.052;9.850;2023-02-21T04:46:17;98805.41;;;8.06;73.62
77323;BME280;66384;51.052;9.850;2023-02-21T04:48:49;98803.55;;;8.06;73.58
77323;BME280;66384;51.052;9.850;2023-02-21T04:51:20;98804.57;;;8.06;73.46
77323;BME280;66384;51.052;9.850;2023-02-21T04:53:51;98799.26;;;8.06;73.50
77323;BME280;66384;51.052;9.850;2023-02-21T04:56:22;98791.66;;;8.05;73.53
77323;BME280;66384;51.052;9.850;2023-02-21T04:58:52;98798.28;;;8.03;73.51
77323;BME280;66384;51.052;9.850;2023-02-21T05:01:22;98800.85;;;8.03;73.72
77323;BME280;66384;51.052;9.850;2023-02-21T05:03:51;98801.36;;;8.03;73.66
77323;BME280;66384;51.052;9.850;2023-02-21T05:06:22;98800.75;;;8.05;73.88
77323;BME280;66384;51.052;9.850;2023-02-21T05:08:52;98800.07;;;8.05;73.77
77323;BME280;66384;51.052;9.850;2023-02-21T05:11:22;98805.23;;;8.05;73.68
77323;BME280;66384;51.052;9.850;2023-02-21T05:13:51;98806.95;;;8.05;73.75
77323;BME280;66384;51.052;9.850;2023-02-21T05:16:21;98795.29;;;8.05;73.77
77323;BME280;66384;51.052;9.850;2023-02-21T05:18:50;98796.66;;;8.05;73.56
77323;BME280;66384;51.052;9.850;2023-02-21T05:21:20;98792.23;;;8.06;73.62
77323;BME280;66384;51.052;9.850;2023-02-21T05:23:49;98788.20;;;8.08;73.65
77323;BME280;66384;51.052;9.850;2023-02-21T05:26:26;98783.44;;;8.09;73.25
77323;BME280;66384;51.052;9.850;2023-02-21T05:28:57;98782.73;;;8.08;73.49
77323;BME280;66384;51.052;9.850;2023-02-21T05:31:27;98776.48;;;8.06;73.35
77323;BME280;66384;51.052;9.850;2023-02-21T05:33:56;98771.95;;;8.04;73.44
77323;BME280;66384;51.052;9.850;2023-02-21T05:36:26;98770.86;;;8.02;73.35
77323;BME280;66384;51.052;9.850;2023-02-21T05:38:55;98769.08;;;8.00;73.57
77323;BME280;66384;51.052;9.850;2023-02-21T05:41:25;98768.99;;;7.99;73.44
77323;BME280;66384;51.052;9.850;2023-02-21T05:43:54;98768.44;;;7.97;73.54
77323;BME280;66384;51.052;9.850;2023-02-21T05:46:26;98768.05;;;7.96;73.62
77323;BME280;66384;51.052;9.850;2023-02-21T05:48:57;98764.44;;;7.95;73.48
77323;BME280;66384;51.052;9.850;2023-02-21T05:51:27;98760.46;;;7.95;73.35
77323;BME280;66384;51.052;9.850;2023-02-21T05:53:56;98758.27;;;7.95;73.53
77323;BME280;66384;51.052;9.850;2023-02-21T05:56:25;98758.60;;;7.95;73.28
77323;BME280;66384;51.052;9.850;2023-02-21T05:58:55;98762.59;;;7.96;73.60
77323;BME280;66384;51.052;9.850;2023-02-21T06:01:24;98760.36;;;7.96;73.49
77323;BME280;66384;51.052;9.850;2023-02-21T06:03:53;98760.08;;;7.98;73.48
77323;BME280;66384;51.052;9.850;2023-02-21T06:06:23;98755.75;;;7.97;73.61
77323;BME280;66384;51.052;9.850;2023-02-21T06:08:52;98759.02;;;7.97;73.40
77323;BME280;66384;51.052;9.850;2023-02-21T06:11:24;98762.08;;;7.96;73.40
77323;BME280;66384;51.052;9.850;2023-02-21T06:13:56;98766.63;;;7.95;73.66
77323;BME280;66384;51.052;9.850;2023-02-21T06:16:24;98764.73;;;7.94;73.86
77323;BME280;66384;51.052;9.850;2023-02-21T06:18:56;98765.44;;;7.95;73.89
77323;BME280;66384;51.052;9.850;2023-02-21T06:21:25;98766.27;;;7.94;73.89
77323;BME280;66384;51.052;9.850;2023-02-21T06:23:55;98771.58;;;7.94;73.62
77323;BME280;66384;51.052;9.850;2023-02-21T06:26:25;98774.73;;;7.96;73.80
77323;BME280;66384;51.052;9.850;2023-02-21T06:28:54;98775.43;;;7.96;73.78
77323;BME280;66384;51.052;9.850;2023-02-21T06:31:24;98768.88;;;7.95;73.79
77323;BME280;66384;51.052;9.850;2023-02-21T06:33:53;98771.48;;;7.96;73.64
77323;BME280;66384;51.052;9.850;2023-02-21T06:36:25;98769.73;;;7.94;73.68
77323;BME280;66384;51.052;9.850;2023-02-21T06:38:56;98771.09;;;7.95;73.86
77323;BME280;66384;51.052;9.850;2023-02-21T06:41:27;98773.39;;;7.96;73.42
77323;BME280;66384;51.052;9.850;2023-02-21T06:43:58;98773.55;;;7.96;73.62
77323;BME280;66384;51.052;9.850;2023-02-21T06:46:28;98769.28;;;7.97;73.66
77323;BME280;66384;51.052;9.850;2023-02-21T06:48:58;98770.83;;;7.97;73.50
77323;BME280;66384;51.052;9.850;2023-02-21T06:51:27;98772.23;;;7.98;73.40
77323;BME280;66384;51.052;9.850;2023-02-21T06:53:58;98776.06;;;8.00;73.47
77323;BME280;66384;51.052;9.850;2023-02-21T06:56:27;98784.52;;;8.01;73.66
77323;BME280;66384;51.052;9.850;2023-02-21T06:58:56;98786.64;;;8.03;73.55
77323;BME280;66384;51.052;9.850;2023-02-21T07:01:28;98786.83;;;8.03;73.17
77323;BME280;66384;51.052;9.850;2023-02-21T07:03:58;98786.23;;;8.05;73.40
77323;BME280;66384;51.052;9.850;2023-02-21T07:06:27;98788.17;;;8.08;73.51
77323;BME280;66384;51.052;9.850;2023-02-21T07:08:58;98787.42;;;8.10;73.42
77323;BME280;66384;51.052;9.850;2023-02-21T07:11:28;98787.52;;;8.12;73.25
77323;BME280;66384;51.052;9.850;2023-02-21T07:13:59;98786.45;;;8.16;73.35
77323;BME280;66384;51.052;9.850;2023-02-21T07:16:28;98787.25;;;8.19;73.32
77323;BME280;66384;51.052;9.850;2023-02-21T07:18:58;98785.62;;;8.21;73.17
77323;BME280;66384;51.052;9.850;2023-02-21T07:21:27;98790.21;;;8.25;73.39
77323;BME280;66384;51.052;9.850;2023-02-21T07:23:56;98788.35;;;8.26;73.37
77323;BME280;66384;51.052;9.850;2023-02-21T07:26:25;98788.06;;;8.28;73.41
77323;BME280;66384;51.052;9.850;2023-02-21T07:28:55;98792.13;;;8.31;73.34
77323;BME280;66384;51.052;9.850;2023-02-21T07:31:24;98783.67;;;8.34;73.27
77323;BME280;66384;51.052;9.850;2023-02-21T07:33:53;98785.83;;;8.37;73.18
77323;BME280;66384;51.052;9.850;2023-02-21T07:36:23;98786.65;;;8.39;73.18
77323;BME280;66384;51.052;9.850;2023-02-21T07:38:52;98784.36;;;8.42;73.38
77323;BME280;66384;51.052;9.850;2023-02-21T07:41:21;98789.27;;;8.46;73.03
77323;BME280;66384;51.052;9.850;2023-02-21T07:43:50;98802.23;;;8.49;73.03
77323;BME280;66384;51.052;9.850;2023-02-21T07:46:20;98812.25;;;8.51;72.93
77323;BME280;66384;51.052;9.850;2023-02-21T07:48:54;98813.01;;;8.53;73.22
77323;BME280;66384;51.052;9.850;2023-02-21T07:51:25;98813.26;;;8.55;73.10
77323;BME280;66384;51.052;9.850;2023-02-21T07:53:55;98814.70;;;8.57;72.92
77323;BME280;66384;51.052;9.850;2023-02-21T07:56:24;98815.31;;;8.60;72.81
77323;BME280;66384;51.052;9.850;2023-02-21T07:58:53;98818.81;;;8.61;72.90
77323;BME280;66384;51.052;9.850;2023-02-21T08:01:24;98816.27;;;8.62;72.99
77323;BME280;66384;51.052;9.850;2023-02-21T08:03:53;98817.98;;;8.63;72.96
77323;BME280;66384;51.052;9.850;2023-02-21T08:06:22;98812.70;;;8.63;73.11
77323;BME280;66384;51.052;9.850;2023-02-21T08:08:52;98816.69;;;8.64;72.85
77323;BME280;66384;51.052;9.850;2023-02-21T08:11:21;98813.64;;;8.65;73.07
77323;BME280;66384;51.052;9.850;2023-02-21T08:13:51;98811.10;;;8.67;72.94
77323;BME280;66384;51.052;9.850;2023-02-21T08:16:20;98812.58;;;8.69;73.05
77323;BME280;66384;51.052;9.850;2023-02-21T08:18:50;98807.73;;;8.73;72.88
77323;BME280;66384;51.052;9.850;2023-02-21T08:21:20;98807.35;;;8.77;72.88
77323;BME280;66384;51.052;9.850;2023-02-21T08:23:52;98811.82;;;8.77;72.74
77323;BME280;66384;51.052;9.850;2023-02-21T08:26:22;98813.16;;;8.81;72.80
77323;BME280;66384;51.052;9.850;2023-02-21T08:28:52;98815.90;;;8.86;72.87
77323;BME280;66384;51.052;9.850;2023-02-21T08:31:21;98814.31;;;8.90;72.75
77323;BME280;66384;51.052;9.850;2023-02-21T08:33:51;98815.31;;;8.94;72.53
77323;BME280;66384;51.052;9.850;2023-02-21T08:36:20;98810.77;;;8.96;72.76
77323;BME280;66384;51.052;9.850;2023-02-21T08:38:52;98812.61;;;9.00;72.66
77323;BME280;66384;51.052;9.850;2023-02-21T08:41:22;98809.98;;;9.03;72.56
77323;BME280;66384;51.052;9.850;2023-02-21T08:43:52;98807.38;;;9.07;72.43
77323;BME280;66384;51.052;9.850;2023-02-21T08:46:22;98808.20;;;9.12;72.48
77323;BME280;66384;51.052;9.850;2023-02-21T08:48:51;98809.42;;;9.17;72.34
77323;BME280;66384;51.052;9.850;2023-02-21T08:51:26;98810.72;;;9.21;72.39
77323;BME280;66384;51.052;9.850;2023-02-21T08:53:56;98812.55;;;9.24;72.47
77323;BME280;66384;51.052;9.850;2023-02-21T08:56:26;98809.33;;;9.25;72.26
77323;BME280;66384;51.052;9.850;2023-02-21T08:58:55;98805.77;;;9.27;72.19
77323;BME280;66384;51.052;9.850;2023-02-21T09:01:31;98807.88;;;9.28;71.95
77323;BME280;66384;51.052;9.850;2023-02-21T09:04:01;98811.16;;;9.28;72.02
77323;BME280;66384;51.052;9.850;2023-02-21T09:06:30;98813.63;;;9.30;72.03
77323;BME280;66384;51.052;9.850;2023-02-21T09:08:59;98815.08;;;9.32;72.14
77323;BME280;66384;51.052;9.850;2023-02-21T09:11:29;98817.69;;;9.34;72.14
77323;BME280;66384;51.052;9.850;2023-02-21T09:13:58;98819.65;;;9.36;72.24
77323;BME280;66384;51.052;9.850;2023-02-21T09:16:27;98817.99;;;9.38;72.12
77323;BME280;66384;51.052;9.850;2023-02-21T09:18:58;98822.55;;;9.41;72.18
77323;BME280;66384;51.052;9.850;2023-02-21T09:21:28;98822.61;;;9.43;71.95
77323;BME280;66384;51.052;9.850;2023-02-21T09:23:57;98822.98;;;9.44;72.21
77323;BME280;66384;51.052;9.850;2023-02-21T09:26:27;98818.56;;;9.45;72.13
77323;BME280;66384;51.052;9.850;2023-02-21T09:28:59;98817.46;;;9.48;72.10
77323;BME280;66384;51.052;9.850;2023-02-21T09:31:28;98821.44;;;9.49;71.97
77323;BME280;66384;51.052;9.850;2023-02-21T09:34:00;98819.73;;;9.49;71.95
77323;BME280;66384;51.052;9.850;2023-02-21T09:36:30;98825.14;;;9.51;72.16
77323;BME280;66384;51.052;9.850;2023-02-21T09:38:59;98827.99;;;9.54;72.35
77323;BME280;66384;51.052;9.850;2023-02-21T09:41:33;98829.42;;;9.57;72.27
77323;BME280;66384;51.052;9.850;2023-02-21T09:44:04;98831.05;;;9.60;72.14
77323;BME280;66384;51.052;9.850;2023-02-21T09:46:37;98836.30;;;9.63;72.14
77323;BME280;66384;51.052;9.850;2023-02-21T09:49:10;98840.55;;;9.67;72.04
77323;BME280;66384;51.052;9.850;2023-02-21T09:51:41;98842.17;;;9.69;72.08
77323;BME280;66384;51.052;9.850;2023-02-21T09:54:18;98840.80;;;9.70;71.96
77323;BME280;66384;51.052;9.850;2023-02-21T09:56:51;98841.19;;;9.71;71.94
77323;BME280;66384;51.052;9.850;2023-02-21T09:59:22;98843.46;;;9.71;72.04
77323;BME280;66384;51.052;9.850;2023-02-21T10:02:00;98839.58;;;9.74;72.04
77323;BME280;66384;51.052;9.850;2023-02-21T10:04:40;98839.84;;;9.76;72.31
77323;BME280;66384;51.052;9.850;2023-02-21T10:07:15;98845.18;;;9.77;72.21
77323;BME280;66384;51.052;9.850;2023-02-21T10:09:51;98845.71;;;9.77;72.11
77323;BME280;66384;51.052;9.850;2023-02-21T10:12:27;98847.42;;;9.77;72.04
77323;BME280;66384;51.052;9.850;2023-02-21T10:15:18;98850.04;;;9.78;71.98
77323;BME280;66384;51.052;9.850;2023-02-21T10:17:57;98846.48;;;9.81;72.36
77323;BME280;66384;51.052;9.850;2023-02-21T10:20:31;98848.95;;;9.83;72.41
77323;BME280;66384;51.052;9.850;2023-02-21T10:23:03;98854.98;;;9.83;72.34
77323;BME280;66384;51.052;9.850;2023-02-21T10:25:44;98851.39;;;9.83;72.20
77323;BME280;66384;51.052;9.850;2023-02-21T10:28:18;98854.81;;;9.83;72.36
77323;BME280;66384;51.052;9.850;2023-02-21T10:30:49;98858.03;;;9.81;72.43
77323;BME280;66384;51.052;9.850;2023-02-21T10:33:20;98860.14;;;9.83;72.61
77323;BME280;66384;51.052;9.850;2023-02-21T10:35:49;98862.86;;;9.82;72.26
77323;BME280;66384;51.052;9.850;2023-02-21T10:38:25;98861.52;;;9.83;72.36
77323;BME280;66384;51.052;9.850;2023-02-21T10:40:56;98865.55;;;9.85;72.41
77323;BME280;66384;51.052;9.850;2023-02-21T10:43:31;98862.48;;;9.86;72.46
77323;BME280;66384;51.052;9.850;2023-02-21T10:46:07;98861.30;;;9.87;72.79
77323;BME280;66384;51.052;9.850;2023-02-21T10:48:38;98864.95;;;9.88;72.61
77323;BME280;66384;51.052;9.850;2023-02-21T10:51:11;98864.80;;;9.90;72.66
77323;BME280;66384;51.052;9.850;2023-02-21T10:53:41;98864.52;;;9.91;72.75
77323;BME280;66384;51.052;9.850;2023-02-21T10:56:23;98865.27;;;9.93;72.79
77323;BME280;66384;51.052;9.850;2023-02-21T10:58:55;98869.27;;;9.94;72.61
77323;BME280;66384;51.052;9.850;2023-02-21T11:01:34;98867.26;;;9.96;72.83
77323;BME280;66384;51.052;9.850;2023-02-21T11:04:06;98865.09;;;9.98;72.71
77323;BME280;66384;51.052;9.850;2023-02-21T11:06:51;98862.63;;;10.02;72.48
77323;BME280;66384;51.052;9.850;2023-02-21T11:09:32;98865.34;;;10.07;72.47
77323;BME280;66384;51.052;9.850;2023-02-21T11:12:05;98861.88;;;10.12;72.45
77323;BME280;66384;51.052;9.850;2023-02-21T11:14:37;98859.27;;;10.16;72.45
77323;BME280;66384;51.052;9.850;2023-02-21T11:17:14;98859.13;;;10.22;72.34
77323;BME280;66384;51.052;9.850;2023-02-21T11:19:53;98855.27;;;10.25;72.34
77323;BME280;66384;51.052;9.850;2023-02-21T11:22:25;98854.27;;;10.32;72.36
77323;BME280;66384;51.052;9.850;2023-02-21T11:25:11;98850.55;;;10.39;71.98
77323;BME280;66384;51.052;9.850;2023-02-21T11:27:44;98848.61;;;10.43;71.97
77323;BME280;66384;51.052;9.850;2023-02-21T11:30:26;98845.31;;;10.49;71.86
77323;BME280;66384;51.052;9.850;2023-02-21T11:32:58;98838.42;;;10.55;71.82
77323;BME280;66384;51.052;9.850;2023-02-21T11:35:29;98836.73;;;10.61;71.88
77323;BME280;66384;51.052;9.850;2023-02-21T11:38:02;98835.30;;;10.66;71.55
77323;BME280;66384;51.052;9.850;2023-02-21T11:40:40;98831.80;;;10.69;71.37
77323;BME280;66384;51.052;9.850;2023-02-21T11:43:19;98826.42;;;10.74;71.35
77323;BME280;66384;51.052;9.850;2023-02-21T11:48:46;98817.50;;;10.87;71.09
77323;BME280;66384;51.052;9.850;2023-02-21T11:51:31;98813.23;;;10.95;71.12
77323;BME280;66384;51.052;9.850;2023-02-21T11:54:04;98806.52;;;11.02;70.98
77323;BME280;66384;51.052;9.850;2023-02-21T11:56:39;98801.48;;;11.07;70.81
77323;BME280;66384;51.052;9.850;2023-02-21T12:02:18;98797.26;;;11.17;70.65
77323;BME280;66384;51.052;9.850;2023-02-21T12:05:02;98799.03;;;11.19;70.32
77323;BME280;66384;51.052;9.850;2023-02-21T12:07:45;98792.55;;;11.21;70.47
77323;BME280;66384;51.052;9.850;2023-02-21T12:10:30;98791.64;;;11.26;70.61
77323;BME280;66384;51.052;9.850;2023-02-21T12:13:08;98783.16;;;11.31;70.56
77323;BME280;66384;51.052;9.850;2023-02-21T12:15:49;98780.21;;;11.37;70.18
77323;BME280;66384;51.052;9.850;2023-02-21T12:18:41;98773.42;;;11.41;70.02
77323;BME280;66384;51.052;9.850;2023-02-21T12:21:37;98774.34;;;11.44;69.80
77323;BME280;66384;51.052;9.850;2023-02-21T12:24:28;98768.19;;;11.46;69.51
77323;BME280;66384;51.052;9.850;2023-02-21T12:27:05;98763.02;;;11.46;69.43
77323;BME280;66384;51.052;9.850;2023-02-21T12:29:50;98762.70;;;11.47;69.45
77323;BME280;66384;51.052;9.850;2023-02-21T12:32:38;98763.27;;;11.49;69.21
77323;BME280;66384;51.052;9.850;2023-02-21T12:35:43;98760.98;;;11.47;69.27
77323;BME280;66384;51.052;9.850;2023-02-21T12:38:22;98759.27;;;11.47;69.35
77323;BME280;66384;51.052;9.850;2023-02-21T12:41:01;98756.41;;;11.50;69.38
77323;BME280;66384;51.052;9.850;2023-02-21T12:43:41;98752.27;;;11.50;69.26
77323;BME280;66384;51.052;9.850;2023-02-21T12:46:20;98752.11;;;11.51;69.15
77323;BME280;66384;51.052;9.850;2023-02-21T12:48:57;98749.00;;;11.50;69.16
77323;BME280;66384;51.052;9.850;2023-02-21T12:51:32;98748.35;;;11.52;69.15
77323;BME280;66384;51.052;9.850;2023-02-21T12:54:05;98748.52;;;11.52;69.20
77323;BME280;66384;51.052;9.850;2023-02-21T12:56:39;98750.59;;;11.52;69.26
77323;BME280;66384;51.052;9.850;2023-02-21T12:59:17;98747.18;;;11.54;69.25
77323;BME280;66384;51.052;9.850;2023-02-21T13:01:51;98746.64;;;11.53;69.11
77323;BME280;66384;51.052;9.850;2023-02-21T13:04:31;98743.02;;;11.53;69.05
77323;BME280;66384;51.052;9.850;2023-02-21T13:07:05;98738.19;;;11.52;69.07
77323;BME280;66384;51.052;9.850;2023-02-21T13:09:55;98732.35;;;11.53;69.06
77323;BME280;66384;51.052;9.850;2023-02-21T13:12:34;98734.66;;;11.56;69.09
77323;BME280;66384;51.052;9.850;2023-02-21T13:15:15;98726.45;;;11.59;68.81
77323;BME280;66384;51.052;9.850;2023-02-21T13:17:54;98725.38;;;11.57;69.05
77323;BME280;66384;51.052;9.850;2023-02-21T13:20:28;98726.60;;;11.57;69.15
77323;BME280;66384;51.052;9.850;2023-02-21T13:26:39;98719.93;;;11.60;69.15
77323;BME280;66384;51.052;9.850;2023-02-21T13:29:17;98718.52;;;11.58;68.82
77323;BME280;66384;51.052;9.850;2023-02-21T13:31:48;98713.65;;;11.56;68.68
77323;BME280;66384;51.052;9.850;2023-02-21T13:34:25;98714.60;;;11.52;68.84
77323;BME280;66384;51.052;9.850;2023-02-21T13:37:01;98708.01;;;11.50;68.94
77323;BME280;66384;51.052;9.850;2023-02-21T13:39:33;98705.09;;;11.50;69.04
77323;BME280;66384;51.052;9.850;2023-02-21T13:42:08;98702.54;;;11.53;69.19
77323;BME280;66384;51.052;9.850;2023-02-21T13:44:41;98703.13;;;11.55;68.98
77323;BME280;66384;51.052;9.850;2023-02-21T13:47:13;98699.02;;;11.56;69.21
77323;BME280;66384;51.052;9.850;2023-02-21T13:49:49;98699.08;;;11.59;69.29
77323;BME280;66384;51.052;9.850;2023-02-21T13:55:25;98694.94;;;11.67;69.08
77323;BME280;66384;51.052;9.850;2023-02-21T14:04:57;98694.45;;;11.60;68.95
77323;BME280;66384;51.052;9.850;2023-02-21T14:10:23;98691.73;;;11.53;69.04
77323;BME280;66384;51.052;9.850;2023-02-21T14:12:56;98687.55;;;11.51;69.06
77323;BME280;66384;51.052;9.850;2023-02-21T14:15:39;98683.37;;;11.50;68.95
77323;BME280;66384;51.052;9.850;2023-02-21T14:18:17;98684.16;;;11.46;68.85
77323;BME280;66384;51.052;9.850;2023-02-21T14:20:51;98679.94;;;11.43;68.89